createdAt,value
2023-03-26T00:00:43.795Z,96449.38
2023-03-26T00:05:48.249Z,96445.34
2023-03-26T00:10:51.789Z,96434.00
2023-03-26T00:15:56.570Z,96447.00
2023-03-26T00:21:00.551Z,96452.88
2023-03-26T00:26:05.410Z,96452.34
2023-03-26T00:31:12.620Z,96433.84
2023-03-26T00:36:20.158Z,96445.69
2023-03-26T00:41:27.157Z,96449.13
2023-03-26T00:46:32.719Z,96441.84
2023-03-26T00:51:37.386Z,96444.97
2023-03-26T00:56:40.849Z,96434.44
2023-03-26T01:01:45.568Z,96431.66
2023-03-26T01:06:48.807Z,96432.72
2023-03-26T01:11:52.376Z,96438.88
2023-03-26T01:16:58.975Z,96440.78
2023-03-26T01:22:02.752Z,96427.59
2023-03-26T01:27:24.401Z,96415.63
2023-03-26T01:32:47.967Z,96430.47
2023-03-26T01:38:10.809Z,96413.94
2023-03-26T01:43:26.732Z,96418.59
2023-03-26T01:48:32.620Z,96420.56
2023-03-26T01:53:40.646Z,96428.53
2023-03-26T01:58:56.752Z,96422.31
2023-03-26T02:04:08.016Z,96413.44
2023-03-26T02:09:15.607Z,96417.78
2023-03-26T02:14:20.455Z,96411.16
2023-03-26T02:19:24.695Z,96412.09
2023-03-26T02:24:28.041Z,96392.53
2023-03-26T02:29:37.872Z,96398.00
2023-03-26T02:34:42.371Z,96394.81
2023-03-26T02:39:46.554Z,96382.47
2023-03-26T02:45:01.799Z,96385.16
2023-03-26T02:50:24.109Z,96387.63
2023-03-26T02:55:47.572Z,96395.78
2023-03-26T03:00:54.966Z,96389.38
2023-03-26T03:06:05.173Z,96396.69
2023-03-26T03:11:18.579Z,96389.28
2023-03-26T03:16:24.998Z,96397.06
2023-03-26T03:21:29.884Z,96395.06
2023-03-26T03:26:34.228Z,96386.84
2023-03-26T03:31:50.657Z,96392.69
2023-03-26T03:37:14.926Z,96390.06
2023-03-26T03:42:25.426Z,96384.59
2023-03-26T03:47:32.935Z,96383.19
2023-03-26T03:52:36.304Z,96385.72
2023-03-26T03:57:41.538Z,96399.25
2023-03-26T04:02:54.370Z,96390.84
2023-03-26T04:08:00.069Z,96392.47
2023-03-26T04:13:03.334Z,96390.47
2023-03-26T04:18:37.585Z,96394.41
2023-03-26T04:23:48.483Z,96399.75
2023-03-26T04:29:24.068Z,96394.06
2023-03-26T04:34:31.162Z,96384.13
2023-03-26T04:39:47.409Z,96383.22
2023-03-26T04:45:14.530Z,96386.59
2023-03-26T04:50:22.538Z,96383.56
2023-03-26T04:55:32.312Z,96376.94
2023-03-26T05:00:45.236Z,96375.41
2023-03-26T05:05:50.702Z,96378.84
2023-03-26T05:10:54.358Z,96377.25
2023-03-26T05:16:06.665Z,96366.00
2023-03-26T05:21:15.689Z,96362.09
2023-03-26T05:26:20.101Z,96350.63
2023-03-26T05:31:24.411Z,96346.09
2023-03-26T05:36:33.186Z,96341.91
2023-03-26T05:41:59.220Z,96346.56
2023-03-26T05:47:11.436Z,96331.00
2023-03-26T05:52:18.980Z,96326.06
2023-03-26T05:57:42.030Z,96330.84
2023-03-26T06:03:03.259Z,96325.84
2023-03-26T06:08:31.345Z,96321.59
2023-03-26T06:13:34.586Z,96308.97
2023-03-26T06:18:38.509Z,96306.09
2023-03-26T06:24:01.756Z,96296.47
2023-03-26T06:29:15.461Z,96294.78
2023-03-26T06:34:41.978Z,96287.59
2023-03-26T06:39:46.741Z,96286.63
2023-03-26T06:44:53.198Z,96280.28
2023-03-26T06:49:56.473Z,96285.94
2023-03-26T06:55:14.224Z,96282.72
2023-03-26T07:00:43.937Z,96275.25
2023-03-26T07:06:06.696Z,96278.38
2023-03-26T07:11:30.000Z,96264.25
2023-03-26T07:16:51.772Z,96266.94
2023-03-26T07:22:16.261Z,96261.94
2023-03-26T07:27:48.007Z,96254.66
2023-03-26T07:33:03.250Z,96252.44
2023-03-26T07:38:30.139Z,96253.72
2023-03-26T07:44:19.998Z,96249.34
2023-03-26T07:49:33.017Z,96239.63
2023-03-26T07:54:54.757Z,96250.34
2023-03-26T08:00:36.125Z,96233.13
2023-03-26T08:05:49.296Z,96236.22
2023-03-26T08:11:16.134Z,96226.59
2023-03-26T08:16:36.611Z,96228.72
2023-03-26T08:21:45.746Z,96230.16
2023-03-26T08:26:58.888Z,96223.44
2023-03-26T08:32:06.321Z,96209.66
2023-03-26T08:37:10.071Z,96201.06
2023-03-26T08:43:02.544Z,96184.91
2023-03-26T08:48:31.553Z,96181.28
2023-03-26T08:53:54.545Z,96182.31
2023-03-26T08:59:26.108Z,96180.56
2023-03-26T09:05:21.653Z,96177.91
2023-03-26T09:10:54.471Z,96166.53
2023-03-26T09:16:33.618Z,96158.75
2023-03-26T09:22:02.118Z,96147.63
2023-03-26T09:27:31.852Z,96151.63
2023-03-26T09:33:01.848Z,96147.78
2023-03-26T09:38:18.287Z,96139.28
2023-03-26T09:44:03.299Z,96129.84
2023-03-26T09:49:22.858Z,96124.75
2023-03-26T09:55:08.498Z,96118.63
2023-03-26T10:00:25.964Z,96121.66
2023-03-26T10:05:42.904Z,96111.53
2023-03-26T10:10:54.581Z,96107.66
2023-03-26T10:16:18.315Z,96107.09
2023-03-26T10:21:32.199Z,96098.09
2023-03-26T10:27:10.004Z,96094.09
2023-03-26T10:32:28.022Z,96098.38
2023-03-26T10:37:42.568Z,96098.75
2023-03-26T10:43:08.801Z,96092.38
2023-03-26T10:48:41.992Z,96092.84
2023-03-26T10:53:51.206Z,96103.72
2023-03-26T10:58:58.348Z,96088.00
2023-03-26T11:04:11.112Z,96087.53
2023-03-26T11:09:29.674Z,96078.56
2023-03-26T11:14:40.138Z,96068.97
2023-03-26T11:19:52.002Z,96077.34
2023-03-26T11:25:13.303Z,96081.13
2023-03-26T11:30:26.578Z,96071.84
2023-03-26T11:35:40.448Z,96070.28
2023-03-26T11:40:52.061Z,96076.56
2023-03-26T11:46:12.944Z,96071.53
2023-03-26T11:51:21.924Z,96071.97
2023-03-26T11:56:31.276Z,96071.00
2023-03-26T12:01:51.724Z,96070.50
2023-03-26T12:06:57.690Z,96068.09
2023-03-26T12:12:04.913Z,96059.25
2023-03-26T12:17:15.673Z,96054.38
2023-03-26T12:22:31.163Z,96052.69
2023-03-26T12:27:34.638Z,96049.50
2023-03-26T12:32:46.849Z,96041.59
2023-03-26T12:37:52.020Z,96037.69
2023-03-26T12:44:46.871Z,96034.03
2023-03-26T12:48:25.929Z,96035.03
2023-03-26T12:53:43.096Z,96033.91
2023-03-26T12:59:07.216Z,96034.44
2023-03-26T13:04:35.319Z,96015.41
2023-03-26T13:09:46.657Z,96006.50
2023-03-26T13:15:03.087Z,95992.41
2023-03-26T13:20:16.416Z,95984.69
2023-03-26T13:25:29.257Z,95971.97
2023-03-26T13:30:39.695Z,95969.97
2023-03-26T13:36:06.507Z,95968.41
2023-03-26T13:41:26.413Z,95948.44
2023-03-26T13:46:33.512Z,95932.84
2023-03-26T13:51:43.585Z,95918.00
2023-03-26T13:56:52.359Z,95931.59
2023-03-26T14:01:59.985Z,95929.75
2023-03-26T14:07:12.347Z,95910.69
2023-03-26T14:12:28.928Z,95906.56
2023-03-26T14:17:40.579Z,95901.91
2023-03-26T14:23:00.144Z,95900.94
2023-03-26T14:28:16.826Z,95898.78
2023-03-26T14:33:48.171Z,95900.13
2023-03-26T14:39:27.876Z,95894.19
2023-03-26T14:45:02.721Z,95882.72
2023-03-26T14:50:42.912Z,95880.56
2023-03-26T14:56:05.528Z,95873.63
2023-03-26T15:01:27.836Z,95869.50
2023-03-26T15:07:07.504Z,95867.38
2023-03-26T15:12:25.934Z,95860.84
2023-03-26T15:18:06.329Z,95867.31
2023-03-26T15:23:51.378Z,95858.16
2023-03-26T15:29:22.679Z,95855.53
2023-03-26T15:35:00.332Z,95848.28
2023-03-26T15:40:31.918Z,95857.88
2023-03-26T15:45:41.457Z,95850.41
2023-03-26T15:50:55.927Z,95844.19
2023-03-26T15:56:16.151Z,95839.50
2023-03-26T16:01:34.077Z,95834.81
2023-03-26T16:06:51.753Z,95831.50
2023-03-26T16:11:58.479Z,95826.84
2023-03-26T16:17:06.522Z,95828.03
2023-03-26T16:22:16.325Z,95840.78
2023-03-26T16:27:33.573Z,95841.94
2023-03-26T16:32:42.816Z,95846.72
2023-03-26T16:37:50.766Z,95855.69
2023-03-26T16:43:00.109Z,95848.09
2023-03-26T16:48:19.012Z,95859.44
2023-03-26T16:53:30.523Z,95848.19
2023-03-26T16:58:46.057Z,95854.41
2023-03-26T17:03:57.694Z,95843.25
2023-03-26T17:09:10.635Z,95863.28
2023-03-26T17:14:29.630Z,95865.91
2023-03-26T17:19:40.685Z,95870.88
2023-03-26T17:24:49.425Z,95887.84
2023-03-26T17:30:35.571Z,95899.59
2023-03-26T17:35:43.758Z,95905.78
2023-03-26T17:40:54.592Z,95906.38
2023-03-26T17:46:02.742Z,95886.81
2023-03-26T17:51:26.230Z,95897.47
2023-03-26T17:56:33.224Z,95904.03
2023-03-26T18:01:39.465Z,95905.63
2023-03-26T18:06:59.107Z,95914.25
2023-03-26T18:12:26.081Z,95914.84
2023-03-26T18:17:40.400Z,95923.41
2023-03-26T18:22:47.022Z,95920.06
2023-03-26T18:27:51.531Z,95927.47
2023-03-26T18:33:01.162Z,95929.09
2023-03-26T18:38:06.286Z,95935.09
2023-03-26T18:43:25.427Z,95934.06
2023-03-26T18:48:37.432Z,95938.69
2023-03-26T18:53:47.713Z,95931.06
2023-03-26T18:58:57.715Z,95935.91
2023-03-26T19:04:04.125Z,95925.25
2023-03-26T19:09:24.281Z,95918.47
2023-03-26T19:14:36.953Z,95915.97
2023-03-26T19:19:40.581Z,95915.44
2023-03-26T19:24:45.415Z,95915.72
2023-03-26T19:29:48.825Z,95919.75
2023-03-26T19:34:53.541Z,95924.34
2023-03-26T19:40:06.961Z,95927.66
2023-03-26T19:45:17.436Z,95920.03
2023-03-26T19:50:26.118Z,95919.78
2023-03-26T19:55:31.472Z,95925.31
2023-03-26T20:00:34.904Z,95918.25
2023-03-26T20:05:39.932Z,95923.78
2023-03-26T20:10:45.635Z,95928.59
2023-03-26T20:16:05.142Z,95925.72
2023-03-26T20:21:12.342Z,95930.28
2023-03-26T20:26:18.805Z,95931.13
2023-03-26T20:31:25.182Z,95939.78
2023-03-26T20:36:33.438Z,95938.56
2023-03-26T20:41:47.276Z,95954.63
2023-03-26T20:46:52.661Z,95961.41
2023-03-26T20:51:57.576Z,95958.34
2023-03-26T20:57:02.723Z,95957.13
2023-03-26T21:02:06.280Z,95969.84
2023-03-26T21:07:17.844Z,95964.16
2023-03-26T21:12:30.821Z,95977.75
2023-03-26T21:17:34.585Z,95983.91
2023-03-26T21:22:44.833Z,95986.06
2023-03-26T21:27:59.527Z,95991.91
2023-03-26T21:33:05.445Z,96002.94
2023-03-26T21:38:09.432Z,96012.03
2023-03-26T21:43:14.494Z,96020.16
2023-03-26T21:48:18.394Z,96032.78
2023-03-26T21:53:22.659Z,96036.75
2023-03-26T21:58:40.141Z,96050.88
2023-03-26T22:03:56.325Z,96053.75
2023-03-26T22:09:00.637Z,96065.75
2023-03-26T22:14:05.107Z,96066.84
2023-03-26T22:19:08.730Z,96082.56
2023-03-26T22:24:12.181Z,96093.06
2023-03-26T22:29:16.941Z,96102.78
2023-03-26T22:34:21.274Z,96114.84
2023-03-26T22:39:24.589Z,96128.09
2023-03-26T22:44:29.053Z,96136.13
2023-03-26T22:49:32.306Z,96146.63
2023-03-26T22:54:36.577Z,96158.03
2023-03-26T22:59:41.413Z,96175.25
2023-03-26T23:04:44.522Z,96185.63
2023-03-26T23:09:47.811Z,96197.28
2023-03-26T23:14:53.056Z,96203.97
2023-03-26T23:19:56.274Z,96220.75
2023-03-26T23:24:59.489Z,96227.63
2023-03-26T23:30:05.319Z,96248.13
2023-03-26T23:35:09.160Z,96264.47
2023-03-26T23:40:13.879Z,96268.13
2023-03-26T23:45:19.073Z,96281.81
2023-03-26T23:50:23.540Z,96285.56
2023-03-26T23:55:28.103Z,96294.31
